DW8965 Weather Reports


Display with metric or nautical units.
time (UTC)temp
F
wind
direction
speed
MPH
gust
MPH
rain 1hr
in
rain 24hr
in
rain mn
in
humidity
%
barometer
mb
20171211001455 40 0 0.0 0.0 0.00 0.19 0.00 92 981.1
20171211000455 40 0 0.0 0.0 0.00 0.19 0.00 92 980.8
20171210235455 40 0 0.0 0.0 0.00 0.19 0.00 93 980.6
20171210234455 40 0 0.0 0.0 0.00 0.19 0.00 93 980.8
20171210233454 39 0 0.0 0.0 0.00 0.19 0.00 93 980.5
20171210232455 39 0 0.0 0.0 0.02 0.19 0.00 93 980.1
20171210231455 39 0 0.0 0.0 0.02 0.19 0.00 93 979.8
20171210225455 40 0 0.0 0.0 0.04 0.19 0.18 93 979.4
20171210224455 40 0 0.0 0.0 0.04 0.19 0.18 93 979.4
20171210223454 40 0 0.0 0.0 0.04 0.19 0.18 93 979.5
20171210222454 39 0 0.0 0.0 0.02 0.17 0.16 93 979.6
20171210221455 39 0 0.0 0.0 0.04 0.17 0.16 92 979.4
20171210220455 39 0 0.0 0.0 0.04 0.17 0.16 92 979.3
20171210215455 38 0 0.0 0.0 0.02 0.14 0.14 92 979.2
20171210214455 38 0 0.0 0.0 0.02 0.14 0.14 92 979.3
20171210213455 39 0 0.0 0.0 0.04 0.14 0.14 91 979.5
20171210212455 39 0 0.0 0.0 0.04 0.14 0.14 92 979.6
20171210211454 39 0 0.0 0.0 0.04 0.12 0.12 92 979.4
20171210210455 39 0 0.0 0.0 0.04 0.12 0.12 92 979.4
20171210205455 39 0 0.0 0.0 0.04 0.12 0.12 92 979.5
20171210204455 39 0 0.0 0.0 0.06 0.12 0.12 92 979.6
20171210203455 38 0 0.0 0.0 0.06 0.10 0.10 92 979.7
20171210202455 38 0 0.0 0.0 0.08 0.10 0.10 92 979.8
20171210201455 38 0 0.0 0.0 0.06 0.08 0.08 92 979.8
20171210200455 38 0 0.0 0.0 0.08 0.08 0.08 92 980.0
20171210195455 37 0 0.0 0.0 0.08 0.08 0.08 93 980.0
20171210194455 37 0 0.0 0.0 0.06 0.06 0.06 92 980.2
20171210193455 37 0 0.0 0.0 0.04 0.04 0.04 93 980.4
20171210192455 37 0 0.0 0.0 0.02 0.02 0.02 93 980.3
20171210191455 36 0 0.0 0.0 0.02 0.02 0.02 92 980.1
20171210190455 36 0 0.0 0.0 0.00 0.00 0.00 92 980.1
20171210185455 36 0 0.0 0.0 0.00 0.00 0.00 92 980.0
20171210184455 35 0 0.0 0.0 0.00 0.00 0.00 92 979.9
20171210183454 35 0 0.0 0.0 0.00 0.00 0.00 92 979.9
20171210182454 35 0 0.0 0.0 0.00 0.00 0.00 92 980.0
20171210181455 35 0 0.0 0.0 0.00 0.00 0.00 92 980.0
20171210180455 34 0 0.0 0.0 0.00 0.00 0.00 91 980.0
20171210175455 34 0 0.0 0.0 0.00 0.00 0.00 91 979.9
20171210174455 34 0 0.0 0.0 0.00 0.00 0.00 91 980.1
20171210173455 34 0 0.0 0.0 0.00 0.00 0.00 91 980.0
20171210172455 33 0 0.0 0.0 0.00 0.00 0.00 91 980.1
20171210171455 33 0 0.0 0.0 0.00 0.00 0.00 91 980.0
20171210170455 33 0 0.0 0.0 0.00 0.00 0.00 90 980.2
20171210165455 33 0 0.0 0.0 0.00 0.00 0.00 90 980.3
20171210164455 32 0 0.0 0.0 0.00 0.00 0.00 90 980.5
20171210163455 32 0 0.0 0.0 0.00 0.00 0.00 90 980.3
20171210162455 32 0 0.0 0.0 0.00 0.00 0.00 90 980.8
20171210161455 32 0 0.0 0.0 0.00 0.00 0.00 90 981.1
20171210160455 32 0 0.0 0.0 0.00 0.00 0.00 90 981.0
20171210155454 32 0 0.0 0.0 0.00 0.00 0.00 90 981.1
20171210154454 31 0 0.0 0.0 0.00 0.00 0.00 90 981.1
20171210153455 31 0 0.0 0.0 0.00 0.00 0.00 90 981.2
20171210152455 31 0 0.0 0.0 0.00 0.00 0.00 89 981.4
20171210151455 31 0 0.0 0.0 0.00 0.00 0.00 89 981.5
20171210150455 31 0 0.0 0.0 0.00 0.00 0.00 89 981.5
20171210145455 31 0 0.0 0.0 0.00 0.00 0.00 89 981.6
20171210144455 30 0 0.0 0.0 0.00 0.00 0.00 89 981.6
20171210143455 30 0 0.0 0.0 0.00 0.00 0.00 89 982.2
20171210142455 30 0 0.0 0.0 0.00 0.00 0.00 88 982.3
20171210141455 30 0 0.0 0.0 0.00 0.00 0.00 88 982.6
20171210140455 30 0 0.0 0.0 0.00 0.00 0.00 88 982.5
20171210135455 30 0 0.0 0.0 0.00 0.00 0.00 88 982.6
20171210134455 30 0 0.0 0.0 0.00 0.00 0.00 87 982.8
20171210133456 30 0 0.0 0.0 0.00 0.00 0.00 88 983.1
20171210132455 30 0 0.0 0.0 0.00 0.00 0.00 88 983.8
20171210131455 30 0 0.0 0.0 0.00 0.00 0.00 87 984.1
20171210130455 30 0 0.0 0.0 0.00 0.00 0.00 87 984.6
20171210125455 30 0 0.0 0.0 0.00 0.00 0.00 87 984.7
20171210124455 30 0 0.0 0.0 0.00 0.00 0.00 86 985.1
20171210123454 31 0 0.0 0.0 0.00 0.00 0.00 86 985.4
20171210122454 31 0 0.0 0.0 0.00 0.00 0.00 85 985.8
20171210121455 31 0 0.0 0.0 0.00 0.00 0.00 84 986.3
20171210120455 32 0 0.0 0.0 0.00 0.00 0.00 84 986.9
20171210115455 32 0 0.0 0.0 0.00 0.00 0.00 83 987.4
20171210114455 33 0 0.0 0.0 0.00 0.00 0.00 82 987.7
20171210113455 33 0 0.0 0.0 0.00 0.00 0.00 82 988.3
20171210112455 33 0 0.0 0.0 0.00 0.00 0.00 82 988.6
20171210111455 33 0 0.0 0.0 0.00 0.00 0.00 82 989.1
20171210110455 33 0 0.0 0.0 0.00 0.00 0.00 83 989.6
20171210105455 33 0 0.0 0.0 0.00 0.00 0.00 83 990.2
20171210104455 33 0 0.0 0.0 0.00 0.00 0.00 83 990.9
20171210103455 33 0 0.0 0.0 0.00 0.00 0.00 83 991.5
20171210102455 33 0 0.0 0.0 0.00 0.00 0.00 84 991.7
20171210101455 33 0 0.0 0.0 0.00 0.00 0.00 84 992.3
20171210100455 33 0 0.0 0.0 0.00 0.00 0.00 84 993.1
20171210095455 33 0 0.0 0.0 0.00 0.00 0.00 84 993.6
20171210094455 33 0 0.0 0.0 0.00 0.00 0.00 84 994.1
20171210093456 33 0 0.0 0.0 0.00 0.00 0.00 84 994.6
20171210091456 33 0 0.0 0.0 0.00 0.00 0.00 85 995.4
20171210090455 33 0 0.0 0.0 0.00 0.00 0.00 85 995.8
20171210085455 33 0 0.0 0.0 0.00 0.00 0.00 85 995.9
20171210084455 33 0 0.0 0.0 0.00 0.00 0.00 85 996.2
20171210083456 32 0 0.0 0.0 0.00 0.00 0.00 85 996.3
20171210082455 32 0 0.0 0.0 0.00 0.00 0.00 85 996.7
20171210081455 32 0 0.0 0.0 0.00 0.00 0.00 86 997.1
20171210080455 32 0 0.0 0.0 0.00 0.00 0.00 86 997.4
20171210075455 32 0 0.0 0.0 0.00 0.00 0.00 86 997.7
20171210074455 32 0 0.0 0.0 0.00 0.00 0.00 86 997.9
20171210073455 32 0 0.0 0.0 0.00 0.00 0.00 86 998.2
20171210072455 32 0 0.0 0.0 0.00 0.00 0.00 86 998.5
20171210071455 32 0 0.0 0.0 0.00 0.00 0.00 86 998.5
20171210070455 32 0 0.0 0.0 0.00 0.00 0.00 86 998.7
20171210065455 32 0 0.0 0.0 0.00 0.00 0.00 86 999.1
20171210064455 32 0 0.0 0.0 0.00 0.00 0.00 87 999.5
20171210063455 32 0 0.0 0.0 0.00 0.00 0.00 87 999.8
20171210062455 32 0 0.0 0.0 0.00 0.00 0.00 87 1000.4
20171210061455 32 0 0.0 0.0 0.00 0.00 0.00 88 1000.5
20171210060455 32 0 0.0 0.0 0.00 0.00 0.00 88 1000.7
20171210055455 32 0 0.0 0.0 0.00 0.00 0.00 88 1001.0
20171210054455 32 0 0.0 0.0 0.00 0.00 0.00 88 1001.2
20171210053456 32 0 0.0 0.0 0.00 0.00 0.00 88 1001.3
20171210052456 31 0 0.0 0.0 0.00 0.00 0.00 88 1001.6
20171210051455 31 0 0.0 0.0 0.00 0.00 0.00 89 1002.0
20171210050455 31 0 0.0 0.0 0.00 0.00 0.00 89 1002.0
20171210045455 31 0 0.0 0.0 0.00 0.00 0.00 89 1002.4
20171210044455 31 0 0.0 0.0 0.00 0.00 0.00 88 1002.6
20171210043455 31 0 0.0 0.0 0.00 0.00 0.00 88 1002.8
20171210042455 31 0 0.0 0.0 0.00 0.00 0.00 88 1002.9
20171210041456 31 0 0.0 0.0 0.00 0.00 0.00 88 1003.3
20171210040455 32 0 0.0 0.0 0.00 0.00 0.00 88 1003.6
20171210035455 32 0 0.0 0.0 0.00 0.00 0.00 87 1003.6
20171210034455 32 0 0.0 0.0 0.00 0.00 0.00 87 1003.7
20171210033455 32 0 0.0 0.0 0.00 0.00 0.00 86 1004.0
20171210032455 32 0 0.0 0.0 0.00 0.00 0.00 87 1004.2
20171210031455 33 0 0.0 0.0 0.00 0.00 0.00 87 1004.3
20171210030455 33 0 0.0 0.0 0.00 0.00 0.00 88 1004.6
20171210025456 33 0 0.0 0.0 0.00 0.00 0.00 88 1004.7
20171210024455 33 0 0.0 0.0 0.00 0.00 0.00 88 1005.0
20171210023455 33 0 0.0 0.0 0.00 0.00 0.00 88 1005.0
20171210022455 32 0 0.0 0.0 0.00 0.00 0.00 89 1005.1
20171210021455 33 0 0.0 0.0 0.00 0.00 0.00 89 1005.4
20171210020455 32 0 0.0 0.0 0.00 0.00 0.00 89 1005.7
20171210015455 32 0 0.0 0.0 0.00 0.00 0.00 88 1005.9
20171210014455 32 0 0.0 0.0 0.00 0.00 0.00 88 1006.1
20171210013455 32 0 0.0 0.0 0.00 0.00 0.00 88 1006.1
20171210012455 32 0 0.0 0.0 0.00 0.00 0.00 88 1006.3
20171210011455 32 0 0.0 0.0 0.00 0.00 0.00 87 1006.5
20171210010455 32 0 0.0 0.0 0.00 0.00 0.00 86 1006.6
20171210005455 32 0 0.0 0.0 0.00 0.00 0.00 86 1006.8
20171210004455 32 0 0.0 0.0 0.00 0.00 0.00 86 1007.0
20171210003455 33 0 0.0 0.0 0.00 0.00 0.00 85 1007.2
20171210002456 33 0 0.0 0.0 0.00 0.00 0.00 84 1007.3